Terminal Aerodrome Forecast
Issued by NWS

Home | Current Version | Previous Version | Text Only | Print | Product List | Glossary On
Versions: 1 2 3 4 5 6 7 8 9 10 11 12 13 14 15
000
FTUS41 KBTV 162320
TAFRUT
TAF
KRUT 162320Z 1700/1724 32005KT P6SM BKN040
     FM170400 VRB03KT P6SM SCT045
     FM170700 14003KT P6SM SKC
     FM171500 23006KT P6SM FEW200=

USA.gov is the U.S. government's official web portal to all federal, state and local government web resources and services.